Time;durP1;ratioP1;P1;durP2;ratioP2;P2;SDS_P1;SDS_P2;PMS_P1;PMS_P2;Temp;Humidity;BMP_temperature;BMP_pressure;BME280_temperature;BME280_humidity;BME280_pressure;Samples;Min_cycle;Max_cycle;Signal;HPM_P1;HPM_P2
2023/06/14 00:01:48;;;;;;;9.43;6.27;;;16.80;99.90;;;;;;5053125;28;20466;-91
2023/06/14 00:04:16;;;;;;;8.53;6.33;;;16.70;99.90;;;;;;5053023;28;20666;-92
2023/06/14 00:06:44;;;;;;;8.30;6.77;;;16.70;99.90;;;;;;5053083;28;20458;-94
2023/06/14 00:09:12;;;;;;;9.23;7.10;;;16.70;99.90;;;;;;5052753;28;20805;-92
2023/06/14 00:11:39;;;;;;;10.23;7.03;;;16.60;99.90;;;;;;5053260;28;20471;-91
2023/06/14 00:14:05;;;;;;;9.23;7.93;;;16.60;99.90;;;;;;5037069;28;20416;-96
2023/06/14 00:16:32;;;;;;;11.40;6.70;;;16.60;99.90;;;;;;5055294;28;20416;-96
2023/06/14 00:18:58;;;;;;;10.93;7.70;;;16.60;99.90;;;;;;5058414;28;20435;-95
2023/06/14 00:21:24;;;;;;;11.10;7.67;;;16.60;99.90;;;;;;5057951;28;20419;-92
2023/06/14 00:23:50;;;;;;;9.90;7.70;;;16.50;99.90;;;;;;5053855;28;20738;-96
2023/06/14 00:26:16;;;;;;;11.20;7.60;;;16.60;99.90;;;;;;5055311;28;20170;-96
2023/06/14 00:28:42;;;;;;;8.00;7.20;;;16.60;99.90;;;;;;5053724;28;20521;-95
2023/06/14 00:31:07;;;;;;;7.97;6.97;;;16.70;99.90;;;;;;5052016;28;20675;-96
2023/06/14 00:33:33;;;;;;;8.00;6.63;;;16.70;99.90;;;;;;5052912;28;20210;-92
2023/06/14 00:35:59;;;;;;;8.20;6.53;;;16.70;99.90;;;;;;5036638;28;20181;-95
2023/06/14 00:38:25;;;;;;;10.33;7.30;;;16.60;99.90;;;;;;5052848;28;20713;-93
2023/06/14 00:40:51;;;;;;;8.13;7.33;;;16.60;99.90;;;;;;5055896;28;20404;-92
2023/06/14 00:43:16;;;;;;;8.53;7.50;;;16.60;99.90;;;;;;5053537;28;20207;-92
2023/06/14 00:45:42;;;;;;;7.63;6.60;;;16.40;99.90;;;;;;5036260;28;20170;-91
2023/06/14 00:48:09;;;;;;;9.10;6.47;;;16.30;99.90;;;;;;5052308;28;20296;-95
2023/06/14 00:50:36;;;;;;;7.47;6.47;;;16.30;99.90;;;;;;5037045;28;20256;-96
2023/06/14 00:53:02;;;;;;;7.30;5.90;;;16.30;99.90;;;;;;5051754;28;20483;-95
2023/06/14 00:55:28;;;;;;;9.20;7.10;;;16.30;99.90;;;;;;5056247;28;20400;-94
2023/06/14 00:57:57;;;;;;;7.60;5.87;;;16.30;99.90;;;;;;5051867;28;20471;-95
2023/06/14 01:00:22;;;;;;;8.40;6.87;;;16.30;99.90;;;;;;5051915;28;20435;-92
2023/06/14 01:02:49;;;;;;;10.50;7.83;;;16.20;99.90;;;;;;5051713;28;20447;-95
2023/06/14 01:05:16;;;;;;;10.40;6.87;;;16.20;99.90;;;;;;5051965;28;20221;-95
2023/06/14 01:08:00;;;;;;;8.23;6.17;;;16.20;99.90;;;;;;5051719;28;20986;-95
2023/06/14 01:10:42;;;;;;;8.10;7.17;;;16.20;99.90;;;;;;5035221;28;20475;-95
2023/06/14 01:13:31;;;;;;;9.43;7.70;;;16.20;99.90;;;;;;5052310;28;20455;-93
2023/06/14 01:15:58;;;;;;;10.73;7.70;;;16.20;99.90;;;;;;5037794;28;20404;-96
2023/06/14 01:18:25;;;;;;;9.03;6.90;;;16.10;99.90;;;;;;5037817;28;20451;-91
2023/06/14 01:20:54;;;;;;;9.57;8.10;;;16.10;99.90;;;;;;5054950;28;20412;-92
2023/06/14 01:23:22;;;;;;;9.73;7.70;;;16.10;99.90;;;;;;5059744;28;20790;-95
2023/06/14 01:25:52;;;;;;;11.40;7.40;;;16.00;99.90;;;;;;5051356;28;20434;-91
2023/06/14 01:28:20;;;;;;;12.67;8.07;;;16.00;99.90;;;;;;5051251;28;20471;-91
2023/06/14 01:30:53;;;;;;;8.87;6.73;;;16.00;99.90;;;;;;5034594;28;20476;-96
2023/06/14 01:33:20;;;;;;;9.27;7.20;;;16.00;99.90;;;;;;5051425;28;20439;-91
2023/06/14 01:35:51;;;;;;;10.20;8.00;;;16.00;99.90;;;;;;5036069;28;20400;-92
2023/06/14 01:38:23;;;;;;;10.00;7.20;;;16.00;99.90;;;;;;5051417;28;20444;-94
2023/06/14 01:40:50;;;;;;;9.03;7.03;;;15.90;99.90;;;;;;5051468;28;20442;-92
2023/06/14 01:43:17;;;;;;;9.43;7.50;;;15.90;99.90;;;;;;5050518;28;20794;-91
2023/06/14 01:45:45;;;;;;;8.97;7.13;;;15.90;99.90;;;;;;5051284;28;20842;-95
2023/06/14 01:48:12;;;;;;;10.07;7.10;;;15.80;99.90;;;;;;5055421;28;20963;-95
2023/06/14 01:50:37;;;;;;;9.93;7.37;;;15.80;99.90;;;;;;5036448;28;20466;-91
2023/06/14 01:53:07;;;;;;;13.03;9.00;;;15.80;99.90;;;;;;5035537;28;20443;-91
2023/06/14 01:55:37;;;;;;;10.40;7.70;;;15.80;99.90;;;;;;5053876;28;20186;-91
2023/06/14 01:58:03;;;;;;;9.17;7.63;;;15.70;99.90;;;;;;5051737;28;20443;-94
2023/06/14 02:00:29;;;;;;;8.80;6.87;;;15.60;99.90;;;;;;5052827;28;20415;-90
2023/06/14 02:02:55;;;;;;;8.10;6.80;;;15.60;99.90;;;;;;5051165;28;20462;-96
2023/06/14 02:05:21;;;;;;;7.77;6.97;;;15.50;99.90;;;;;;5050872;28;20190;-96
2023/06/14 02:07:47;;;;;;;8.60;7.03;;;15.50;99.90;;;;;;5035281;28;20928;-91
2023/06/14 02:10:14;;;;;;;11.13;7.67;;;15.50;99.90;;;;;;5050469;28;20460;-95
2023/06/14 02:12:40;;;;;;;14.90;7.80;;;15.40;99.90;;;;;;5050823;28;20550;-96
2023/06/14 02:15:06;;;;;;;10.13;7.30;;;15.40;99.90;;;;;;5050636;28;20446;-95
2023/06/14 02:17:33;;;;;;;9.83;7.70;;;15.40;99.90;;;;;;5050406;28;20497;-92
2023/06/14 02:19:58;;;;;;;10.10;7.30;;;15.40;99.90;;;;;;5050524;28;20493;-94
2023/06/14 02:22:24;;;;;;;8.27;7.33;;;15.30;99.90;;;;;;5050589;28;20455;-95
2023/06/14 02:24:50;;;;;;;11.63;7.70;;;15.30;99.90;;;;;;5052975;28;20178;-94
2023/06/14 02:27:16;;;;;;;10.57;7.80;;;15.30;99.90;;;;;;5051912;28;20820;-91
2023/06/14 02:29:42;;;;;;;10.53;8.20;;;15.30;99.90;;;;;;5053820;28;20427;-92
2023/06/14 02:32:08;;;;;;;9.10;7.30;;;15.30;99.90;;;;;;5056927;28;20555;-93
2023/06/14 02:34:34;;;;;;;12.07;7.37;;;15.20;99.90;;;;;;5033692;28;20170;-91
2023/06/14 02:37:02;;;;;;;9.20;7.00;;;15.20;99.90;;;;;;5050132;28;20486;-95
2023/06/14 02:39:28;;;;;;;10.40;8.23;;;15.20;99.90;;;;;;5050300;28;20407;-90
2023/06/14 02:41:54;;;;;;;9.80;7.57;;;15.20;99.90;;;;;;5034537;28;20454;-95
2023/06/14 02:44:26;;;;;;;9.57;8.30;;;15.20;99.90;;;;;;5034717;28;20403;-95
2023/06/14 02:46:52;;;;;;;10.83;8.10;;;15.10;99.90;;;;;;5050135;28;20297;-95
2023/06/14 02:49:18;;;;;;;10.20;7.90;;;15.10;99.90;;;;;;5033527;28;20444;-92
2023/06/14 02:51:44;;;;;;;8.97;7.67;;;15.10;99.90;;;;;;5050017;28;20896;-95
2023/06/14 02:54:10;;;;;;;8.03;7.20;;;15.10;99.90;;;;;;5053240;28;20214;-92
2023/06/14 02:56:35;;;;;;;9.27;7.90;;;15.10;99.90;;;;;;5054094;28;20427;-96
2023/06/14 02:59:02;;;;;;;10.10;7.70;;;15.10;99.90;;;;;;5038810;28;20438;-95
2023/06/14 03:01:34;;;;;;;8.00;7.17;;;15.10;99.90;;;;;;5053993;28;20175;-96
2023/06/14 03:04:01;;;;;;;12.57;7.10;;;15.00;99.90;;;;;;5054340;28;20419;-91
2023/06/14 03:06:30;;;;;;;10.60;7.40;;;14.90;99.90;;;;;;5054813;28;20412;-95
2023/06/14 03:09:04;;;;;;;9.63;7.10;;;14.80;99.90;;;;;;5039665;28;20423;-91
2023/06/14 03:11:30;;;;;;;9.47;7.50;;;14.70;99.90;;;;;;5056606;28;20475;-96
2023/06/14 03:13:56;;;;;;;8.20;6.60;;;14.70;99.90;;;;;;5062979;28;20423;-95
2023/06/14 03:16:24;;;;;;;9.10;6.80;;;14.70;99.90;;;;;;5059999;28;20525;-96
2023/06/14 03:18:51;;;;;;;9.80;7.00;;;14.70;99.90;;;;;;5053756;28;20451;-91
2023/06/14 03:21:17;;;;;;;9.67;7.70;;;14.70;99.90;;;;;;5056231;28;20414;-95
2023/06/14 03:23:44;;;;;;;10.50;8.90;;;14.60;99.90;;;;;;5053732;28;20478;-95
2023/06/14 03:26:14;;;;;;;9.70;6.50;;;14.60;99.90;;;;;;5053776;28;20515;-91
2023/06/14 03:28:41;;;;;;;10.90;7.40;;;14.50;99.90;;;;;;5053446;28;20554;-95
2023/06/14 03:31:08;;;;;;;11.30;7.50;;;14.50;99.90;;;;;;5053418;28;20566;-91
2023/06/14 03:33:52;;;;;;;8.87;7.63;;;14.50;99.90;;;;;;5053322;28;20486;-95
2023/06/14 03:36:18;;;;;;;8.70;7.50;;;14.50;99.90;;;;;;5053225;28;20423;-91
2023/06/14 03:38:44;;;;;;;13.47;7.47;;;14.60;99.90;;;;;;5038055;28;20504;-95
2023/06/14 03:41:10;;;;;;;8.20;6.60;;;14.60;99.90;;;;;;5053390;28;20178;-92
2023/06/14 03:43:36;;;;;;;9.83;7.27;;;14.70;99.90;;;;;;5037003;28;20301;-91
2023/06/14 03:46:01;;;;;;;10.17;7.10;;;14.70;99.90;;;;;;5044698;28;20163;-91
2023/06/14 03:48:27;;;;;;;13.73;7.80;;;14.80;99.90;;;;;;5044070;28;20448;-95
2023/06/14 03:50:54;;;;;;;11.80;8.20;;;14.80;99.90;;;;;;5052971;28;20214;-90
2023/06/14 03:53:23;;;;;;;10.53;8.20;;;14.80;99.90;;;;;;5052941;28;20879;-95
2023/06/14 03:55:49;;;;;;;9.90;7.70;;;14.80;99.90;;;;;;5036549;28;20514;-91
2023/06/14 03:58:15;;;;;;;11.27;7.50;;;14.90;99.90;;;;;;5053177;28;20475;-91
2023/06/14 04:00:41;;;;;;;11.30;8.03;;;15.00;99.90;;;;;;5041816;28;20422;-94
2023/06/14 04:03:07;;;;;;;9.93;7.50;;;15.20;99.90;;;;;;5057529;28;20811;-95
2023/06/14 04:05:33;;;;;;;11.00;8.30;;;15.30;99.90;;;;;;5052066;28;20228;-94
2023/06/14 04:08:00;;;;;;;10.53;8.00;;;15.40;99.90;;;;;;5052799;28;20489;-95
2023/06/14 04:10:26;;;;;;;9.70;7.40;;;15.50;99.90;;;;;;5052980;28;21034;-91
2023/06/14 04:12:52;;;;;;;10.73;8.20;;;15.70;99.90;;;;;;5053513;28;20447;-92
2023/06/14 04:15:18;;;;;;;10.57;8.03;;;15.80;99.90;;;;;;5038309;28;20778;-93
2023/06/14 04:17:43;;;;;;;12.93;8.30;;;15.90;99.90;;;;;;5052906;28;20233;-92
2023/06/14 04:20:10;;;;;;;12.40;7.90;;;16.00;99.90;;;;;;5053786;28;20434;-95
2023/06/14 04:22:36;;;;;;;12.70;8.87;;;16.20;99.90;;;;;;5042330;28;20206;-96
2023/06/14 04:25:03;;;;;;;13.97;8.40;;;16.30;99.90;;;;;;5043826;28;20450;-93
2023/06/14 04:27:30;;;;;;;14.53;8.70;;;16.40;99.90;;;;;;5044295;28;20238;-92
2023/06/14 04:29:56;;;;;;;10.00;8.13;;;16.50;99.90;;;;;;5016956;28;20501;-94
2023/06/14 04:32:27;;;;;;;10.40;8.20;;;16.70;99.90;;;;;;5032607;28;20468;-94
2023/06/14 04:34:57;;;;;;;15.20;9.07;;;16.70;99.90;;;;;;5017102;28;20401;-95
2023/06/14 04:37:23;;;;;;;9.27;8.10;;;16.70;99.90;;;;;;5017228;28;20463;-96
2023/06/14 04:39:49;;;;;;;11.73;8.60;;;16.60;99.90;;;;;;5020922;28;20413;-93
2023/06/14 04:42:16;;;;;;;10.87;8.10;;;16.60;99.90;;;;;;5034367;28;20214;-96
2023/06/14 04:44:43;;;;;;;14.53;9.27;;;16.60;99.90;;;;;;5042066;28;20425;-94
2023/06/14 04:47:09;;;;;;;13.13;9.20;;;16.60;99.90;;;;;;5036997;28;20498;-91
2023/06/14 04:49:35;;;;;;;11.37;8.70;;;16.60;99.90;;;;;;5046556;28;20950;-92
2023/06/14 04:52:02;;;;;;;13.27;8.93;;;16.70;99.90;;;;;;5035679;28;20833;-95
2023/06/14 04:54:31;;;;;;;22.23;15.27;;;16.60;99.90;;;;;;5025308;28;20654;-94
2023/06/14 04:57:00;;;;;;;20.33;14.00;;;16.80;99.90;;;;;;5047587;28;20958;-96
2023/06/14 04:59:25;;;;;;;13.50;8.80;;;16.90;99.90;;;;;;5050061;28;20484;-92
2023/06/14 05:01:52;;;;;;;12.57;8.60;;;16.90;99.90;;;;;;5023576;28;20443;-92
2023/06/14 05:04:19;;;;;;;12.10;9.20;;;16.90;99.90;;;;;;5049143;28;20251;-93
2023/06/14 05:06:47;;;;;;;13.73;9.37;;;16.90;99.90;;;;;;5038559;28;20443;-96
2023/06/14 05:09:15;;;;;;;11.87;9.27;;;16.90;99.90;;;;;;5032949;28;20989;-96
2023/06/14 05:11:43;;;;;;;11.80;8.87;;;16.90;99.90;;;;;;5035285;28;20462;-96
2023/06/14 05:14:12;;;;;;;14.30;8.70;;;16.90;99.90;;;;;;5031803;28;20417;-94
2023/06/14 05:16:38;;;;;;;14.00;9.40;;;17.00;99.90;;;;;;5036805;28;20452;-93
2023/06/14 05:19:04;;;;;;;13.00;8.50;;;17.00;99.90;;;;;;5048929;28;20408;-94
2023/06/14 05:21:39;;;;;;;13.63;9.13;;;17.10;99.90;;;;;;5038719;28;20477;-95
2023/06/14 05:24:05;;;;;;;12.47;9.57;;;17.20;99.90;;;;;;5038056;28;20427;-95
2023/06/14 05:26:34;;;;;;;12.17;8.63;;;17.30;99.90;;;;;;5024831;28;20408;-92
2023/06/14 05:29:01;;;;;;;10.57;8.57;;;17.40;99.90;;;;;;5034324;28;20491;-96
2023/06/14 05:31:27;;;;;;;12.30;8.07;;;17.50;99.90;;;;;;5036365;28;20940;-96
2023/06/14 05:33:55;;;;;;;18.63;9.23;;;17.50;99.90;;;;;;5043008;28;20404;-96
2023/06/14 05:36:23;;;;;;;10.90;8.40;;;17.60;99.90;;;;;;5036738;28;20439;-95
2023/06/14 05:38:59;;;;;;;12.40;8.07;;;17.70;99.90;;;;;;5043248;28;20439;-96
2023/06/14 05:41:33;;;;;;;12.17;8.90;;;17.80;99.90;;;;;;5045778;28;20495;-96
2023/06/14 05:44:02;;;;;;;12.20;8.77;;;17.90;99.90;;;;;;5057078;28;20431;-96
2023/06/14 05:46:28;;;;;;;10.67;8.60;;;18.00;99.90;;;;;;5040700;28;20431;-96
2023/06/14 05:48:59;;;;;;;12.23;9.03;;;18.10;99.90;;;;;;5042069;28;20433;-95
2023/06/14 05:51:26;;;;;;;13.53;8.60;;;18.20;99.90;;;;;;5054428;28;20468;-96
2023/06/14 05:53:52;;;;;;;10.80;9.30;;;18.20;99.90;;;;;;5040716;28;20438;-96
2023/06/14 05:56:19;;;;;;;17.23;9.13;;;18.20;99.90;;;;;;5037113;28;20451;-92
2023/06/14 05:58:45;;;;;;;11.13;8.13;;;18.30;99.90;;;;;;5036606;28;20454;-96
2023/06/14 06:01:13;;;;;;;12.00;8.63;;;18.40;99.90;;;;;;5035722;28;20452;-92
2023/06/14 06:03:39;;;;;;;11.60;8.90;;;18.50;99.90;;;;;;5033905;28;20464;-95
2023/06/14 06:06:05;;;;;;;11.57;8.63;;;18.60;99.90;;;;;;5037788;28;20438;-95
2023/06/14 06:08:31;;;;;;;8.40;7.03;;;18.70;99.90;;;;;;5038064;28;20609;-93
2023/06/14 06:11:03;;;;;;;10.43;7.40;;;18.80;99.90;;;;;;5033538;28;20472;-96
2023/06/14 06:13:28;;;;;;;10.77;7.40;;;19.00;99.90;;;;;;5037198;28;20484;-96
2023/06/14 06:15:54;;;;;;;14.57;8.50;;;19.00;99.90;;;;;;5040355;28;21012;-96
2023/06/14 06:18:23;;;;;;;8.83;6.83;;;19.20;99.90;;;;;;5039450;28;20232;-96
2023/06/14 06:20:49;;;;;;;8.07;6.50;;;19.30;99.90;;;;;;5036004;28;20192;-96
2023/06/14 06:23:15;;;;;;;9.10;6.73;;;19.40;99.90;;;;;;5025256;28;20475;-96
2023/06/14 06:25:46;;;;;;;13.80;7.00;;;19.40;99.90;;;;;;5029051;28;21010;-96
2023/06/14 06:28:12;;;;;;;188.17;112.07;;;19.50;99.90;;;;;;5038321;28;20500;-96
2023/06/14 06:30:38;;;;;;;11.83;8.60;;;19.60;99.90;;;;;;5035771;28;20457;-94
2023/06/14 06:33:09;;;;;;;11.40;6.70;;;19.70;99.90;;;;;;5049835;28;20485;-96
2023/06/14 06:35:35;;;;;;;9.50;7.30;;;19.70;99.90;;;;;;5038635;28;20438;-94
2023/06/14 06:38:01;;;;;;;11.17;7.23;;;19.80;99.90;;;;;;5046287;28;20489;-94
2023/06/14 06:40:26;;;;;;;9.40;6.50;;;19.90;99.90;;;;;;5040150;28;20231;-93
2023/06/14 06:42:53;;;;;;;8.53;5.90;;;20.00;99.90;;;;;;5037257;28;20486;-95
2023/06/14 06:45:18;;;;;;;8.67;7.03;;;20.00;99.90;;;;;;5033198;28;20726;-93
2023/06/14 06:47:44;;;;;;;8.20;6.60;;;20.10;99.90;;;;;;5041367;28;20502;-95
2023/06/14 06:50:10;;;;;;;6.93;5.93;;;20.20;99.90;;;;;;5020769;28;20215;-95
2023/06/14 06:52:40;;;;;;;9.23;6.47;;;20.20;99.90;;;;;;5021725;28;20195;-95
2023/06/14 06:55:11;;;;;;;7.07;5.77;;;20.20;99.90;;;;;;5038679;28;20447;-96
2023/06/14 06:57:39;;;;;;;8.50;6.03;;;20.30;99.90;;;;;;5035079;28;20587;-96
2023/06/14 07:00:08;;;;;;;7.23;5.97;;;20.30;99.90;;;;;;5034410;28;20459;-95
2023/06/14 07:02:34;;;;;;;7.63;5.20;;;20.50;99.90;;;;;;5057282;28;20435;-96
2023/06/14 07:05:00;;;;;;;8.40;6.10;;;20.50;99.90;;;;;;5035660;28;20485;-94
2023/06/14 07:07:26;;;;;;;8.43;6.30;;;20.60;99.90;;;;;;5034347;28;20424;-96
2023/06/14 07:09:53;;;;;;;8.80;5.60;;;20.70;99.90;;;;;;5040217;28;20165;-96
2023/06/14 07:12:19;;;;;;;6.70;5.97;;;20.80;99.90;;;;;;5050854;28;20819;-93
2023/06/14 07:14:45;;;;;;;8.60;5.97;;;21.00;99.90;;;;;;5033719;28;20415;-94
2023/06/14 07:17:20;;;;;;;8.07;5.90;;;21.10;99.90;;;;;;5036122;28;20198;-96
2023/06/14 07:19:47;;;;;;;8.67;5.40;;;21.20;99.90;;;;;;5039071;28;20249;-96
2023/06/14 07:22:12;;;;;;;10.00;5.60;;;21.30;99.90;;;;;;5042374;28;20443;-96
2023/06/14 07:24:40;;;;;;;7.33;6.63;;;21.40;99.90;;;;;;5041215;28;20457;-96
2023/06/14 07:27:07;;;;;;;7.63;5.20;;;21.50;99.90;;;;;;5047886;28;20494;-94
2023/06/14 07:29:33;;;;;;;7.23;5.90;;;21.50;99.90;;;;;;5020640;28;20446;-93
2023/06/14 07:31:59;;;;;;;9.83;6.13;;;21.60;99.90;;;;;;5020356;28;20487;-94
2023/06/14 07:34:26;;;;;;;6.93;5.90;;;21.70;99.90;;;;;;5037564;28;20186;-96
2023/06/14 07:36:52;;;;;;;4.80;4.27;;;21.80;99.90;;;;;;5044077;28;20219;-96
2023/06/14 07:39:19;;;;;;;9.20;5.03;;;21.90;99.90;;;;;;5035297;28;20448;-96
2023/06/14 07:41:45;;;;;;;5.80;5.20;;;22.00;99.90;;;;;;5031501;28;20423;-96
2023/06/14 07:44:12;;;;;;;6.33;4.57;;;22.00;99.90;;;;;;5034845;28;20424;-94
2023/06/14 07:46:41;;;;;;;5.90;4.27;;;22.00;99.90;;;;;;5041705;28;20432;-95
2023/06/14 07:49:12;;;;;;;4.50;4.10;;;22.10;99.90;;;;;;5037197;28;20486;-96
2023/06/14 07:51:38;;;;;;;5.73;4.40;;;22.20;99.90;;;;;;5040646;28;20514;-96
2023/06/14 07:54:08;;;;;;;6.03;4.60;;;22.30;99.90;;;;;;5042274;28;20522;-96
2023/06/14 07:56:35;;;;;;;9.40;4.43;;;22.40;99.90;;;;;;5041582;28;20431;-96
2023/06/14 07:59:01;;;;;;;5.63;4.70;;;22.50;99.90;;;;;;5039628;28;20448;-96
2023/06/14 08:01:28;;;;;;;6.33;4.97;;;22.60;99.90;;;;;;5039097;28;20440;-96
2023/06/14 08:03:53;;;;;;;5.83;4.43;;;22.60;99.90;;;;;;5042794;28;20206;-96
2023/06/14 08:06:19;;;;;;;6.87;5.90;;;22.70;99.90;;;;;;5043826;28;20504;-93
2023/06/14 08:08:45;;;;;;;4.70;4.13;;;22.70;99.90;;;;;;5039892;28;20227;-94
2023/06/14 08:11:20;;;;;;;5.00;4.50;;;22.80;99.90;;;;;;5039178;28;20471;-96
2023/06/14 08:13:46;;;;;;;8.80;4.40;;;22.80;99.90;;;;;;5024636;28;20865;-94
2023/06/14 08:16:19;;;;;;;4.73;4.17;;;22.80;99.90;;;;;;5037068;28;20451;-96
2023/06/14 08:18:55;;;;;;;4.40;3.20;;;22.90;99.90;;;;;;5036232;28;20214;-96
2023/06/14 08:21:27;;;;;;;4.03;3.73;;;23.00;99.90;;;;;;5039790;28;20436;-96
2023/06/14 08:23:53;;;;;;;5.83;4.13;;;23.00;99.90;;;;;;5044573;28;20464;-93
2023/06/14 08:26:24;;;;;;;3.50;3.20;;;23.10;99.90;;;;;;5036627;28;20441;-96
2023/06/14 08:28:50;;;;;;;4.50;2.80;;;23.10;99.90;;;;;;5039078;28;20500;-94
2023/06/14 08:31:16;;;;;;;3.73;3.33;;;23.20;99.90;;;;;;5039012;28;20449;-95
2023/06/14 08:33:45;;;;;;;5.47;3.10;;;23.30;99.90;;;;;;5043115;28;20436;-96
2023/06/14 08:36:11;;;;;;;4.73;3.27;;;23.30;99.90;;;;;;5044678;28;20417;-93
2023/06/14 08:38:37;;;;;;;4.50;3.27;;;23.40;99.80;;;;;;5044537;28;20480;-95
2023/06/14 08:41:06;;;;;;;3.20;2.90;;;23.50;99.90;;;;;;5040056;28;20425;-95
2023/06/14 08:43:39;;;;;;;5.87;3.00;;;23.60;99.90;;;;;;5024270;28;20429;-96
2023/06/14 08:46:11;;;;;;;2.70;2.50;;;23.70;99.90;;;;;;5059109;28;20451;-96
2023/06/14 08:48:39;;;;;;;3.10;2.80;;;23.80;99.90;;;;;;5049571;28;20482;-96
2023/06/14 08:51:06;;;;;;;3.73;3.10;;;23.90;98.40;;;;;;5033706;28;20547;-94
2023/06/14 08:53:33;;;;;;;5.03;3.03;;;24.10;98.80;;;;;;5046764;28;20502;-96
2023/06/14 08:56:04;;;;;;;4.13;3.23;;;24.20;97.70;;;;;;5057762;28;20515;-95
2023/06/14 08:58:33;;;;;;;3.30;2.83;;;24.20;97.90;;;;;;5035560;28;20483;-96
2023/06/14 09:01:01;;;;;;;3.63;3.30;;;24.20;99.10;;;;;;5043665;28;20439;-93
2023/06/14 09:03:30;;;;;;;4.10;3.70;;;24.30;99.40;;;;;;5035965;28;20471;-96
2023/06/14 09:06:00;;;;;;;3.40;2.60;;;24.30;99.90;;;;;;5041701;28;20448;-95
2023/06/14 09:08:30;;;;;;;3.80;2.90;;;24.40;96.60;;;;;;5035864;28;20488;-95
2023/06/14 09:11:08;;;;;;;3.83;3.50;;;24.50;96.00;;;;;;5041662;28;20543;-96
2023/06/14 09:13:35;;;;;;;7.10;3.53;;;24.60;96.80;;;;;;5058929;28;20442;-96
2023/06/14 09:16:01;;;;;;;7.10;3.13;;;24.70;96.50;;;;;;5041504;28;20427;-95
2023/06/14 09:18:44;;;;;;;4.50;3.17;;;24.80;94.80;;;;;;5037995;28;20426;-96
2023/06/14 09:21:11;;;;;;;3.33;3.03;;;24.80;92.80;;;;;;5050110;28;20544;-94
2023/06/14 09:23:47;;;;;;;5.27;3.20;;;24.80;92.00;;;;;;5040790;28;20459;-95
2023/06/14 09:26:20;;;;;;;5.20;2.93;;;24.70;95.60;;;;;;5039522;28;20449;-95
2023/06/14 09:59:49;;;;;;;4.33;3.50;;;25.30;96.10;;;;;;5058210;28;20505;-96
2023/06/14 10:02:29;;;;;;;3.13;2.80;;;25.30;97.30;;;;;;5062526;28;20433;-96
2023/06/14 10:05:06;;;;;;;3.87;3.57;;;25.40;97.90;;;;;;5081188;28;20487;-96
2023/06/14 10:08:13;;;;;;;3.97;3.67;;;25.40;97.20;;;;;;5063584;28;20429;-96
2023/06/14 10:10:40;;;;;;;4.50;3.63;;;25.50;96.30;;;;;;5023662;28;20481;-96
2023/06/14 10:13:07;;;;;;;4.47;3.40;;;25.60;94.00;;;;;;5073468;28;20449;-95
2023/06/14 10:15:43;;;;;;;3.20;3.00;;;25.60;94.50;;;;;;5046682;28;20517;-96
2023/06/14 10:18:54;;;;;;;3.70;2.93;;;25.60;93.60;;;;;;5049397;28;20430;-96
2023/06/14 10:21:55;;;;;;;3.30;3.00;;;25.60;95.40;;;;;;5073288;28;20436;-95
2023/06/14 10:24:30;;;;;;;4.77;3.50;;;25.60;95.30;;;;;;5056239;28;20519;-95
2023/06/14 10:27:00;;;;;;;4.23;3.13;;;25.70;94.80;;;;;;5067097;28;20433;-96
2023/06/14 10:29:32;;;;;;;4.27;3.43;;;25.60;94.70;;;;;;5073306;28;20437;-95
2023/06/14 10:32:00;;;;;;;5.80;3.20;;;25.60;94.60;;;;;;5055085;28;20473;-96
2023/06/14 10:34:30;;;;;;;4.00;3.17;;;25.70;93.70;;;;;;5067923;28;20544;-96
2023/06/14 10:37:10;;;;;;;4.80;2.93;;;25.60;96.10;;;;;;5065802;28;20450;-94
2023/06/14 10:39:41;;;;;;;6.50;3.60;;;25.70;93.30;;;;;;5055097;28;20453;-96
2023/06/14 10:42:08;;;;;;;10.37;4.33;;;25.70;92.40;;;;;;5074734;28;20421;-95
2023/06/14 10:44:37;;;;;;;3.53;3.10;;;25.70;92.80;;;;;;5063100;28;20445;-95
2023/06/14 10:47:11;;;;;;;4.10;3.60;;;25.70;93.00;;;;;;5070106;28;20442;-96
2023/06/14 10:49:43;;;;;;;3.20;2.87;;;25.80;92.80;;;;;;5067570;28;20457;-96
2023/06/14 10:52:18;;;;;;;3.67;3.37;;;25.80;92.50;;;;;;5060351;28;20497;-96
2023/06/14 10:55:11;;;;;;;4.40;3.60;;;25.80;92.30;;;;;;5060067;28;20413;-95
2023/06/14 10:57:56;;;;;;;7.17;3.20;;;25.80;92.40;;;;;;5079066;28;20470;-95
2023/06/14 11:00:26;;;;;;;4.13;3.73;;;25.90;93.90;;;;;;5074227;28;20461;-96
2023/06/14 11:03:10;;;;;;;4.07;3.73;;;25.90;92.20;;;;;;5060440;28;20462;-96
2023/06/14 11:05:54;;;;;;;4.43;3.40;;;25.90;92.20;;;;;;5047632;28;20445;-96
2023/06/14 11:08:26;;;;;;;5.43;3.73;;;26.00;92.40;;;;;;5075499;28;20462;-96
2023/06/14 11:11:05;;;;;;;4.43;3.13;;;25.90;93.00;;;;;;5079484;28;20469;-96
2023/06/14 11:13:38;;;;;;;4.60;3.80;;;26.00;90.40;;;;;;5072660;28;20449;-96
2023/06/14 11:16:25;;;;;;;4.43;3.43;;;26.00;87.80;;;;;;5073731;28;20424;-95
2023/06/14 11:18:55;;;;;;;4.23;3.13;;;26.00;88.60;;;;;;5053841;28;20427;-96
2023/06/14 11:21:21;;;;;;;3.33;3.00;;;26.10;88.30;;;;;;5058094;28;21091;-96
2023/06/14 11:23:51;;;;;;;3.70;3.40;;;26.10;88.70;;;;;;5067880;28;20466;-95
2023/06/14 11:26:26;;;;;;;3.40;3.10;;;26.10;90.10;;;;;;5086190;28;20413;-96
2023/06/14 11:28:57;;;;;;;3.63;3.33;;;26.10;90.10;;;;;;5079590;28;20813;-96
2023/06/14 11:33:52;;;;;;;4.50;3.70;;;25.80;88.80;;;;;;5067363;28;20497;-78
2023/06/14 11:36:18;;;;;;;4.07;3.30;;;25.50;88.40;;;;;;5065045;28;20406;-76
2023/06/14 11:38:44;;;;;;;4.10;3.37;;;25.30;89.30;;;;;;5061617;28;20471;-78
2023/06/14 11:41:09;;;;;;;4.73;3.17;;;25.20;89.00;;;;;;5047350;28;20694;-78
2023/06/14 11:43:36;;;;;;;4.33;3.40;;;25.20;90.60;;;;;;5048737;28;20209;-78
2023/06/14 11:46:01;;;;;;;3.70;3.37;;;25.30;89.20;;;;;;5062518;28;20276;-76
2023/06/14 11:48:41;;;;;;;4.80;3.60;;;25.30;88.60;;;;;;5047071;28;20718;-78
2023/06/14 11:51:07;;;;;;;5.63;3.30;;;25.30;91.10;;;;;;5047649;28;20290;-79
2023/06/14 11:53:33;;;;;;;4.40;3.07;;;25.50;91.90;;;;;;5066595;28;21026;-78
2023/06/14 11:56:00;;;;;;;4.93;3.20;;;25.50;91.40;;;;;;5062655;28;20626;-78
2023/06/14 11:58:27;;;;;;;12.80;4.37;;;25.70;89.80;;;;;;5062774;28;20477;-78
2023/06/14 12:00:53;;;;;;;5.70;3.73;;;25.80;88.40;;;;;;5068218;28;21095;-77
2023/06/14 12:03:25;;;;;;;4.63;3.97;;;25.80;89.10;;;;;;5068504;28;20949;-77
2023/06/14 12:06:01;;;;;;;3.30;3.00;;;25.90;88.50;;;;;;5051070;28;20458;-78
2023/06/14 12:08:38;;;;;;;3.83;3.10;;;25.90;85.80;;;;;;5064005;28;20454;-79
2023/06/14 12:11:05;;;;;;;4.73;3.43;;;25.90;85.00;;;;;;5067893;28;20479;-78
2023/06/14 12:13:31;;;;;;;3.80;3.40;;;25.90;85.00;;;;;;5050773;28;20881;-78
2023/06/14 12:15:57;;;;;;;4.40;3.37;;;25.90;84.40;;;;;;5067810;28;20781;-77
2023/06/14 12:18:34;;;;;;;3.73;3.37;;;25.90;85.40;;;;;;5048147;28;20247;-78
2023/06/14 12:21:03;;;;;;;3.40;3.10;;;25.90;84.30;;;;;;5056012;28;20208;-77
2023/06/14 12:23:47;;;;;;;4.37;3.53;;;25.90;87.80;;;;;;5063046;28;20465;-78
2023/06/14 12:26:17;;;;;;;7.10;3.57;;;26.00;86.60;;;;;;5068650;28;20428;-78
2023/06/14 12:28:46;;;;;;;6.27;3.20;;;26.10;84.50;;;;;;5059311;28;20537;-77
2023/06/14 12:31:13;;;;;;;3.17;2.87;;;26.10;85.10;;;;;;5062021;28;20977;-79
2023/06/14 12:33:40;;;;;;;3.70;3.40;;;26.20;84.10;;;;;;5058319;28;20840;-78
2023/06/14 12:36:07;;;;;;;4.73;3.10;;;26.10;83.70;;;;;;5050054;28;20520;-78
2023/06/14 12:38:33;;;;;;;3.73;3.43;;;26.10;84.30;;;;;;5047976;28;20462;-76
2023/06/14 12:40:59;;;;;;;3.50;3.20;;;26.20;85.00;;;;;;5063580;28;20948;-77
2023/06/14 12:43:24;;;;;;;4.03;3.63;;;26.30;85.00;;;;;;5066160;28;20561;-78
2023/06/14 12:45:50;;;;;;;5.07;4.07;;;26.30;83.60;;;;;;5046446;28;20268;-78
2023/06/14 12:48:16;;;;;;;4.10;3.37;;;26.30;83.30;;;;;;5069469;28;20619;-77
2023/06/14 12:50:42;;;;;;;6.80;3.37;;;26.40;82.20;;;;;;5070116;28;20209;-77
2023/06/14 12:53:07;;;;;;;5.40;3.67;;;26.30;83.20;;;;;;5068250;28;20205;-78
2023/06/14 12:55:33;;;;;;;5.93;3.90;;;26.30;82.60;;;;;;5056905;28;20954;-77
2023/06/14 12:57:59;;;;;;;3.90;3.37;;;26.30;82.00;;;;;;5070381;28;20201;-79
2023/06/14 13:00:29;;;;;;;3.57;3.27;;;26.30;82.60;;;;;;5068783;28;20260;-77
2023/06/14 13:02:55;;;;;;;3.70;3.40;;;26.30;81.80;;;;;;5065474;28;20190;-77
2023/06/14 13:05:21;;;;;;;3.93;3.53;;;26.30;81.10;;;;;;5070579;28;20422;-78
2023/06/14 13:07:46;;;;;;;5.13;3.50;;;26.30;81.50;;;;;;5053175;28;20189;-77
2023/06/14 13:10:12;;;;;;;4.20;3.67;;;26.30;83.60;;;;;;5068511;28;20533;-78
2023/06/14 13:12:38;;;;;;;3.93;3.23;;;26.30;86.10;;;;;;5066013;28;20268;-78
2023/06/14 13:15:04;;;;;;;5.37;4.23;;;26.30;85.20;;;;;;5067514;28;20239;-78
2023/06/14 13:17:32;;;;;;;6.70;3.90;;;26.30;82.00;;;;;;5050524;28;20839;-76
2023/06/14 13:19:58;;;;;;;3.33;3.07;;;26.20;89.40;;;;;;5050367;28;20958;-77
2023/06/14 13:22:25;;;;;;;3.23;2.97;;;26.20;90.40;;;;;;5049095;28;20456;-78
2023/06/14 13:24:51;;;;;;;4.40;3.33;;;26.20;90.90;;;;;;5046453;28;20259;-78